EDDH/HAM METAR and TAF weather

Enter ICAO airport designator
Station Type Date Time Source
EDDH METAR 2017/04/25 04:20 UTC NOAA

EDDH 250420Z 16005KT 9999 BKN007 BKN050 03/02 Q1002 TEMPO 26010KT 4500 RA


Station Type Date Time Source
EDDH Decoded METAR 2017/04/25 04:20 UTC NOAA

Hamburg-Fuhlsbuettel, Germany (EDDH) 53-38N 010-00E 15M
Apr 25, 2017 - 12:20 AM EDT / 2017.04.25 0420 UTC
Wind: from the SSE (160 degrees) at 6 MPH (5 KT):0
Visibility: greater than 7 mile(s):0
Sky conditions: mostly cloudy
Temperature: 37 F (3 C)
Dew Point: 35 F (2 C)
Relative Humidity: 93%
Pressure (altimeter): 29.59 in. Hg (1002 hPa)
ob: EDDH 250420Z 16005KT 9999 BKN007 BKN050 03/02 Q1002 TEMPO 26010KT 4500 RA
cycle: 4

Station Type Date Time Source
EDDH TAF 2017/04/24 18:46 UTC NOAA

TAF EDDH 241700Z 2418/2524 29008KT 9999 BKN035
BECMG 2418/2420 VRB03KT PROB30
TEMPO 2503/2506 4000 -SHRASN BKN012CB
BECMG 2506/2509 24008KT
TEMPO 2509/2518 4000 -SHRAGS BKN014CB
BECMG 2519/2521 VRB03KT


Example: see airport list